Time;durP1;ratioP1;P1;durP2;ratioP2;P2;SDS_P1;SDS_P2;PMS_P1;PMS_P2;Temp;Humidity;BMP_temperature;BMP_pressure;BME280_temperature;BME280_humidity;BME280_pressure;Samples;Min_cycle;Max_cycle;Signal;HPM_P1;HPM_P2
2022/06/21 00:01:59;;;;;;;16.08;6.97;;;;;;;;;;5053260;28;20037;-72
2022/06/21 00:05:03;;;;;;;16.00;6.78;;;;;;;;;;5052514;28;20048;-73
2022/06/21 00:08:13;;;;;;;17.88;7.65;;;;;;;;;;5052552;28;20488;-73
2022/06/21 00:11:21;;;;;;;24.38;7.47;;;;;;;;;;5052554;28;20044;-73
2022/06/21 00:14:25;;;;;;;15.65;7.88;;;;;;;;;;5051197;28;20049;-73
2022/06/21 00:17:30;;;;;;;12.88;7.35;;;;;;;;;;5052476;28;20049;-73
2022/06/21 00:20:34;;;;;;;15.98;7.32;;;;;;;;;;5051145;28;20397;-73
2022/06/21 00:23:38;;;;;;;13.93;7.82;;;;;;;;;;5051215;28;20049;-73
2022/06/21 00:26:43;;;;;;;11.95;8.60;;;;;;;;;;5052303;28;20037;-73
2022/06/21 00:29:48;;;;;;;15.07;8.98;;;;;;;;;;5051835;28;20535;-72
2022/06/21 00:32:54;;;;;;;12.43;8.75;;;;;;;;;;5051803;28;20048;-73
2022/06/21 00:35:59;;;;;;;17.25;9.07;;;;;;;;;;5052118;28;20045;-72
2022/06/21 00:39:04;;;;;;;16.35;8.98;;;;;;;;;;5051101;28;20035;-72
2022/06/21 00:42:30;;;;;;;15.63;8.95;;;;;;;;;;5051928;28;20038;-72
2022/06/21 00:45:36;;;;;;;17.05;8.68;;;;;;;;;;5051428;28;20059;-72
2022/06/21 00:48:44;;;;;;;14.18;8.98;;;;;;;;;;5051523;28;20049;-72
2022/06/21 00:51:49;;;;;;;16.08;9.20;;;;;;;;;;5051643;28;20048;-72
2022/06/21 00:55:03;;;;;;;17.70;8.45;;;;;;;;;;5051351;28;20041;-73
2022/06/21 00:58:09;;;;;;;14.95;7.70;;;;;;;;;;5050826;28;20040;-72
2022/06/21 01:01:16;;;;;;;12.20;8.82;;;;;;;;;;5051471;28;20041;-73
2022/06/21 01:04:26;;;;;;;18.02;8.63;;;;;;;;;;5051553;28;20037;-73
2022/06/21 01:07:32;;;;;;;25.27;9.23;;;;;;;;;;5051166;28;20473;-73
2022/06/21 01:10:36;;;;;;;15.65;9.15;;;;;;;;;;5051215;28;20051;-73
2022/06/21 01:13:42;;;;;;;15.43;8.50;;;;;;;;;;5050292;28;20050;-73
2022/06/21 01:16:46;;;;;;;15.77;8.25;;;;;;;;;;5050181;28;20037;-73
2022/06/21 01:19:57;;;;;;;12.63;8.27;;;;;;;;;;5050850;28;20029;-73
2022/06/21 01:23:19;;;;;;;20.30;8.52;;;;;;;;;;5049871;28;20057;-73
2022/06/21 01:26:43;;;;;;;20.73;9.43;;;;;;;;;;5049930;28;20033;-73
2022/06/21 01:29:48;;;;;;;17.10;8.85;;;;;;;;;;5050598;28;20037;-73
2022/06/21 01:32:52;;;;;;;11.80;8.50;;;;;;;;;;5051078;28;20029;-73
2022/06/21 01:35:59;;;;;;;11.27;7.90;;;;;;;;;;5050889;28;20044;-73
2022/06/21 01:39:07;;;;;;;11.85;7.50;;;;;;;;;;5051094;28;20373;-73
2022/06/21 01:42:18;;;;;;;18.08;8.63;;;;;;;;;;5050489;28;20025;-73
2022/06/21 01:45:24;;;;;;;16.55;7.90;;;;;;;;;;5050687;28;20097;-73
2022/06/21 01:48:32;;;;;;;10.95;7.20;;;;;;;;;;5050525;28;20041;-73
2022/06/21 01:51:46;;;;;;;8.77;7.00;;;;;;;;;;5053009;28;20509;-73
2022/06/21 01:55:00;;;;;;;13.43;7.95;;;;;;;;;;5054906;28;20041;-73
2022/06/21 01:58:06;;;;;;;15.30;7.65;;;;;;;;;;5054913;28;20044;-73
2022/06/21 02:01:18;;;;;;;15.35;7.07;;;;;;;;;;5054042;28;20052;-73
2022/06/21 02:04:26;;;;;;;11.65;7.85;;;;;;;;;;5054129;28;20048;-73
2022/06/21 02:07:36;;;;;;;9.45;7.45;;;;;;;;;;5042179;28;20041;-73
2022/06/21 02:10:42;;;;;;;11.98;7.80;;;;;;;;;;5054614;28;20052;-73
2022/06/21 02:14:28;;;;;;;10.40;7.85;;;;;;;;;;5053522;28;20041;-72
2022/06/21 02:17:21;;;;;;;11.32;7.57;;;;;;;;;;5054948;28;20064;-73
2022/06/21 02:20:28;;;;;;;10.80;7.93;;;;;;;;;;5054497;28;20041;-73
2022/06/21 02:23:33;;;;;;;14.30;8.40;;;;;;;;;;5053697;28;20413;-73
2022/06/21 02:26:37;;;;;;;11.80;8.20;;;;;;;;;;5054080;28;20534;-73
2022/06/21 02:29:42;;;;;;;22.95;8.80;;;;;;;;;;5053854;28;20060;-73
2022/06/21 02:32:47;;;;;;;12.82;8.60;;;;;;;;;;5054247;28;20041;-73
2022/06/21 02:35:51;;;;;;;17.38;9.10;;;;;;;;;;5054064;28;20505;-74
2022/06/21 02:39:01;;;;;;;14.02;9.20;;;;;;;;;;5053280;28;20047;-73
2022/06/21 02:42:18;;;;;;;13.15;8.45;;;;;;;;;;5053774;28;20036;-73
2022/06/21 02:45:30;;;;;;;11.00;8.70;;;;;;;;;;5053110;28;20044;-73
2022/06/21 02:48:36;;;;;;;15.18;9.65;;;;;;;;;;5052982;28;20049;-73
2022/06/21 02:52:01;;;;;;;16.42;9.20;;;;;;;;;;5053117;28;20064;-73
2022/06/21 02:55:05;;;;;;;16.92;9.93;;;;;;;;;;5053130;28;20041;-73
2022/06/21 02:58:16;;;;;;;18.67;9.73;;;;;;;;;;5053619;28;20048;-73
2022/06/21 03:01:42;;;;;;;10.70;8.83;;;;;;;;;;5053070;28;20040;-73
2022/06/21 03:04:59;;;;;;;13.15;9.23;;;;;;;;;;5053900;28;20037;-73
2022/06/21 03:08:05;;;;;;;17.13;9.73;;;;;;;;;;5053720;28;20041;-73
2022/06/21 03:11:09;;;;;;;15.35;9.43;;;;;;;;;;5053234;28;20183;-73
2022/06/21 03:14:21;;;;;;;16.48;9.07;;;;;;;;;;5053309;28;20039;-74
2022/06/21 03:17:25;;;;;;;;;;;;;;;;;;5053836;28;20040;-73
2022/06/21 03:20:30;;;;;;;17.85;10.23;;;;;;;;;;5053448;28;20265;-73
2022/06/21 03:23:35;;;;;;;16.23;10.10;;;;;;;;;;5052423;28;20052;-73
2022/06/21 03:26:42;;;;;;;17.48;9.52;;;;;;;;;;5053425;28;20199;-73
2022/06/21 03:29:45;;;;;;;21.92;9.52;;;;;;;;;;5052999;28;20044;-73
2022/06/21 03:32:52;;;;;;;19.08;9.93;;;;;;;;;;5053121;28;20041;-73
2022/06/21 03:35:56;;;;;;;16.92;9.32;;;;;;;;;;5052980;28;20035;-73
2022/06/21 03:39:03;;;;;;;15.60;9.63;;;;;;;;;;5052716;28;20411;-73
2022/06/21 03:42:07;;;;;;;22.05;8.93;;;;;;;;;;5052958;28;20244;-73
2022/06/21 03:45:22;;;;;;;22.33;9.50;;;;;;;;;;5052924;28;20041;-73
2022/06/21 03:48:36;;;;;;;17.65;8.90;;;;;;;;;;5052816;28;20044;-73
2022/06/21 03:51:42;;;;;;;24.02;10.80;;;;;;;;;;5051779;28;20037;-73
2022/06/21 03:54:48;;;;;;;15.82;9.50;;;;;;;;;;5051919;28;20060;-73
2022/06/21 03:58:01;;;;;;;16.02;9.25;;;;;;;;;;5051967;28;20040;-73
2022/06/21 04:01:07;;;;;;;20.33;9.45;;;;;;;;;;5051821;28;20042;-73
2022/06/21 04:04:11;;;;;;;18.38;10.13;;;;;;;;;;5051662;28;20037;-73
2022/06/21 04:07:25;;;;;;;17.60;9.20;;;;;;;;;;5052117;28;20102;-73
2022/06/21 04:10:29;;;;;;;20.63;9.23;;;;;;;;;;5052218;28;20217;-73
2022/06/21 04:13:39;;;;;;;16.13;9.90;;;;;;;;;;5052464;28;20041;-74
2022/06/21 04:17:02;;;;;;;22.98;10.55;;;;;;;;;;5052145;28;20049;-73
2022/06/21 04:20:25;;;;;;;15.23;10.32;;;;;;;;;;5052141;28;20384;-73
2022/06/21 04:23:48;;;;;;;19.85;10.32;;;;;;;;;;5052224;28;20052;-73
2022/06/21 04:26:56;;;;;;;16.10;9.60;;;;;;;;;;5052128;28;20052;-73
2022/06/21 04:30:27;;;;;;;14.52;9.48;;;;;;;;;;5051794;28;20053;-73
2022/06/21 04:33:33;;;;;;;19.95;9.75;;;;;;;;;;5051614;28;20039;-73
2022/06/21 04:36:41;;;;;;;21.27;9.88;;;;;;;;;;5051193;28;20048;-73
2022/06/21 04:39:45;;;;;;;19.80;9.13;;;;;;;;;;5051838;28;20044;-73
2022/06/21 04:42:52;;;;;;;31.85;9.90;;;;;;;;;;5051556;28;20063;-73
2022/06/21 04:46:00;;;;;;;24.50;9.52;;;;;;;;;;5051813;28;20045;-73
2022/06/21 04:49:09;;;;;;;18.60;9.18;;;;;;;;;;5051511;28;20507;-74
2022/06/21 04:52:31;;;;;;;26.70;8.82;;;;;;;;;;5050619;28;20052;-73
2022/06/21 04:55:48;;;;;;;15.73;8.20;;;;;;;;;;5051899;28;20044;-73
2022/06/21 04:58:52;;;;;;;15.82;10.90;;;;;;;;;;5051408;28;20033;-73
2022/06/21 05:01:58;;;;;;;24.52;10.88;;;;;;;;;;5050536;28;20134;-73
2022/06/21 05:05:07;;;;;;;30.52;11.98;;;;;;;;;;5050827;28;20052;-73
2022/06/21 05:08:17;;;;;;;21.98;12.40;;;;;;;;;;5051378;28;20211;-73
2022/06/21 05:11:22;;;;;;;33.03;12.60;;;;;;;;;;5050882;28;20495;-73
2022/06/21 05:14:27;;;;;;;29.88;14.05;;;;;;;;;;5050553;28;20056;-73
2022/06/21 05:17:33;;;;;;;20.17;12.57;;;;;;;;;;5051175;28;20044;-73
2022/06/21 05:20:41;;;;;;;28.08;13.02;;;;;;;;;;5050783;28;20196;-73
2022/06/21 05:23:46;;;;;;;37.95;13.05;;;;;;;;;;5051284;28;20060;-73
2022/06/21 05:26:59;;;;;;;21.98;11.43;;;;;;;;;;5049763;28;20044;-71
2022/06/21 05:30:03;;;;;;;23.08;12.43;;;;;;;;;;5050887;28;20056;-71
2022/06/21 05:33:14;;;;;;;16.73;10.38;;;;;;;;;;5051159;28;20052;-71
2022/06/21 05:36:22;;;;;;;22.00;11.43;;;;;;;;;;5050367;28;20091;-74
2022/06/21 05:39:32;;;;;;;16.60;10.90;;;;;;;;;;5050034;28;20055;-74
2022/06/21 05:42:37;;;;;;;22.92;10.77;;;;;;;;;;5038847;28;20408;-74
2022/06/21 05:45:42;;;;;;;24.77;10.88;;;;;;;;;;5050288;28;20044;-74
2022/06/21 05:48:46;;;;;;;21.90;8.65;;;;;;;;;;5050699;28;20056;-73
2022/06/21 05:51:52;;;;;;;15.68;8.35;;;;;;;;;;5050028;28;20232;-74
2022/06/21 05:54:59;;;;;;;16.63;7.75;;;;;;;;;;5050805;28;20495;-75
2022/06/21 05:58:06;;;;;;;24.73;8.00;;;;;;;;;;5050205;28;20053;-72
2022/06/21 06:01:20;;;;;;;19.05;7.35;;;;;;;;;;5050310;28;20047;-74
2022/06/21 06:04:44;;;;;;;17.58;7.00;;;;;;;;;;5049708;28;20041;-73
2022/06/21 06:07:51;;;;;;;22.27;6.38;;;;;;;;;;5038310;28;20616;-74
2022/06/21 06:10:56;;;;;;;17.05;6.97;;;;;;;;;;5050722;28;20048;-74
2022/06/21 06:14:00;;;;;;;165.98;24.05;;;;;;;;;;5049968;28;20044;-72
2022/06/21 06:17:11;;;;;;;28.02;8.85;;;;;;;;;;5050261;28;20397;-72
2022/06/21 06:20:23;;;;;;;19.10;7.03;;;;;;;;;;5038312;28;20056;-73
2022/06/21 06:23:35;;;;;;;13.98;5.40;;;;;;;;;;5049715;28;20045;-72
2022/06/21 06:26:41;;;;;;;12.20;4.20;;;;;;;;;;5050391;28;20052;-72
2022/06/21 06:29:47;;;;;;;6.07;3.60;;;;;;;;;;5050261;28;20045;-72
2022/06/21 06:33:12;;;;;;;16.23;4.55;;;;;;;;;;5050485;28;20033;-73
2022/06/21 06:36:36;;;;;;;11.60;4.57;;;;;;;;;;5049446;28;20037;-73
2022/06/21 06:39:40;;;;;;;12.80;4.43;;;;;;;;;;5041867;28;20049;-71
2022/06/21 06:42:45;;;;;;;18.38;4.45;;;;;;;;;;5053720;28;20041;-73
2022/06/21 06:45:50;;;;;;;16.90;5.32;;;;;;;;;;5054017;28;20405;-73
2022/06/21 06:49:12;;;;;;;18.00;4.30;;;;;;;;;;5053152;28;20044;-71
2022/06/21 06:52:16;;;;;;;11.23;4.15;;;;;;;;;;5052952;28;20049;-71
2022/06/21 06:55:21;;;;;;;20.95;5.57;;;;;;;;;;5041822;28;20037;-72
2022/06/21 06:58:37;;;;;;;13.13;4.93;;;;;;;;;;5052939;28;20129;-70
2022/06/21 07:01:57;;;;;;;14.77;4.97;;;;;;;;;;5053605;28;20045;-70
2022/06/21 07:05:04;;;;;;;155.80;14.65;;;;;;;;;;5053492;28;20044;-71
2022/06/21 07:08:26;;;;;;;48.60;7.47;;;;;;;;;;5053338;28;20048;-71
2022/06/21 07:11:39;;;;;;;9.45;4.22;;;;;;;;;;5052545;28;20044;-72
2022/06/21 07:14:44;;;;;;;9.57;3.60;;;;;;;;;;5052640;28;20477;-72
2022/06/21 07:17:53;;;;;;;7.75;3.60;;;;;;;;;;5053177;28;20060;-71
2022/06/21 07:20:58;;;;;;;8.43;3.90;;;;;;;;;;5053017;28;20476;-71
2022/06/21 07:24:02;;;;;;;7.47;3.50;;;;;;;;;;5052866;28;20377;-65
2022/06/21 07:27:11;;;;;;;11.13;3.38;;;;;;;;;;5052883;28;20037;-65
2022/06/21 07:30:16;;;;;;;12.18;4.22;;;;;;;;;;5052991;28;20060;-67
2022/06/21 07:33:25;;;;;;;5.57;3.80;;;;;;;;;;5053281;28;20046;-66
2022/06/21 07:36:56;;;;;;;11.27;3.85;;;;;;;;;;5053092;28;20041;-65
2022/06/21 07:40:04;;;;;;;10.00;3.78;;;;;;;;;;5052975;28;20040;-64
2022/06/21 07:43:11;;;;;;;9.85;3.95;;;;;;;;;;5052579;28;20028;-64
2022/06/21 07:46:24;;;;;;;9.88;4.60;;;;;;;;;;5052721;28;20049;-65
2022/06/21 07:49:28;;;;;;;15.40;5.13;;;;;;;;;;5052346;28;20045;-71
2022/06/21 07:52:50;;;;;;;8.98;4.03;;;;;;;;;;5052881;28;20041;-71
2022/06/21 07:56:18;;;;;;;12.98;4.10;;;;;;;;;;5052411;28;20373;-73
2022/06/21 07:59:25;;;;;;;11.95;5.18;;;;;;;;;;5051891;28;20049;-73
2022/06/21 08:09:19;;;;;;;11.77;4.10;;;;;;;;;;5051515;28;20049;-74
2022/06/21 08:12:23;;;;;;;10.40;3.40;;;;;;;;;;5052681;28;20131;-68
2022/06/21 08:15:30;;;;;;;6.75;3.30;;;;;;;;;;5051550;28;20040;-69
2022/06/21 08:18:40;;;;;;;11.18;4.40;;;;;;;;;;5052081;28;20045;-69
2022/06/21 08:22:02;;;;;;;17.27;4.50;;;;;;;;;;5052043;28;20401;-68
2022/06/21 08:25:25;;;;;;;10.55;3.58;;;;;;;;;;5052298;28;20036;-69
2022/06/21 08:28:52;;;;;;;31.25;5.72;;;;;;;;;;5051836;28;20408;-71
2022/06/21 08:32:01;;;;;;;12.32;4.15;;;;;;;;;;5051913;28;20396;-71
2022/06/21 08:35:31;;;;;;;11.38;3.53;;;;;;;;;;5049944;28;20048;-72
2022/06/21 08:38:42;;;;;;;11.98;3.80;;;;;;;;;;5051791;28;20037;-69
2022/06/21 08:41:53;;;;;;;13.48;3.85;;;;;;;;;;5051281;28;20029;-71
2022/06/21 08:48:32;;;;;;;10.60;3.80;;;;;;;;;;5051564;28;20512;-69
2022/06/21 08:51:55;;;;;;;11.77;4.10;;;;;;;;;;5050466;28;20045;-73
2022/06/21 08:55:16;;;;;;;26.83;6.18;;;;;;;;;;5050373;28;20072;-68
2022/06/21 08:58:29;;;;;;;11.05;3.90;;;;;;;;;;5039285;28;20059;-70
2022/06/21 09:01:41;;;;;;;7.85;3.88;;;;;;;;;;5049843;28;20037;-68
2022/06/21 09:04:45;;;;;;;10.50;3.65;;;;;;;;;;5050833;28;20037;-67
2022/06/21 09:07:57;;;;;;;4.95;3.20;;;;;;;;;;5051036;28;20041;-67
2022/06/21 09:11:08;;;;;;;9.55;3.75;;;;;;;;;;5051177;28;20037;-67
2022/06/21 09:14:15;;;;;;;5.00;3.15;;;;;;;;;;5051173;28;20037;-70
2022/06/21 09:17:31;;;;;;;10.45;3.55;;;;;;;;;;5050559;28;20045;-68
2022/06/21 09:20:43;;;;;;;5.72;3.30;;;;;;;;;;5051402;28;20037;-68
2022/06/21 09:23:59;;;;;;;9.02;3.92;;;;;;;;;;5051361;28;20041;-67
2022/06/21 09:27:27;;;;;;;10.63;4.07;;;;;;;;;;5051086;28;20041;-70
2022/06/21 09:30:37;;;;;;;9.50;3.42;;;;;;;;;;5050969;28;20077;-72
2022/06/21 09:33:42;;;;;;;8.32;3.95;;;;;;;;;;5051233;28;20299;-70
2022/06/21 09:36:51;;;;;;;17.48;5.20;;;;;;;;;;5050925;28;20045;-77
2022/06/21 09:40:02;;;;;;;8.65;4.60;;;;;;;;;;5050800;28;20041;-71
2022/06/21 09:43:10;;;;;;;5.57;3.60;;;;;;;;;;5038726;28;20382;-71
2022/06/21 09:46:25;;;;;;;8.35;3.42;;;;;;;;;;5050292;28;20036;-72
2022/06/21 09:49:39;;;;;;;5.75;3.17;;;;;;;;;;5050033;28;20052;-70
2022/06/21 09:53:04;;;;;;;7.45;3.42;;;;;;;;;;5050981;28;20037;-69
2022/06/21 09:56:22;;;;;;;9.23;4.00;;;;;;;;;;5050212;28;20045;-72
2022/06/21 09:59:29;;;;;;;5.95;3.17;;;;;;;;;;5049900;28;20469;-71
2022/06/21 10:02:40;;;;;;;7.13;3.38;;;;;;;;;;5051174;28;20041;-74
2022/06/21 10:06:03;;;;;;;5.22;3.33;;;;;;;;;;5050929;28;20036;-74
2022/06/21 10:09:24;;;;;;;12.65;4.72;;;;;;;;;;5049980;28;20033;-69
2022/06/21 10:12:35;;;;;;;6.40;4.18;;;;;;;;;;5052854;28;20507;-71
2022/06/21 10:15:59;;;;;;;6.30;3.95;;;;;;;;;;5053999;28;20037;-75
2022/06/21 10:19:25;;;;;;;11.10;4.05;;;;;;;;;;5053607;28;20037;-70
2022/06/21 10:22:35;;;;;;;3.80;3.38;;;;;;;;;;5054097;28;20048;-70
2022/06/21 10:25:50;;;;;;;9.90;3.47;;;;;;;;;;5053674;28;20032;-72
2022/06/21 10:28:57;;;;;;;7.30;3.38;;;;;;;;;;5054473;28;20049;-74
2022/06/21 10:32:20;;;;;;;6.85;3.92;;;;;;;;;;5054204;28;20033;-73
2022/06/21 10:35:43;;;;;;;4.93;3.50;;;;;;;;;;5042185;28;20040;-72
2022/06/21 10:39:06;;;;;;;9.57;3.45;;;;;;;;;;5054476;28;20481;-78
2022/06/21 10:45:41;;;;;;;7.55;3.55;;;;;;;;;;5042034;28;20040;-77
2022/06/21 10:48:48;;;;;;;6.95;4.03;;;;;;;;;;5053909;28;20037;-73
2022/06/21 10:52:09;;;;;;;9.80;3.58;;;;;;;;;;5053890;28;20053;-73
2022/06/21 10:55:13;;;;;;;9.98;3.80;;;;;;;;;;5053327;28;20373;-73
2022/06/21 10:58:24;;;;;;;4.35;3.15;;;;;;;;;;5053850;28;20377;-73
2022/06/21 11:01:38;;;;;;;6.25;3.15;;;;;;;;;;5053387;28;20040;-73
2022/06/21 11:05:00;;;;;;;8.25;3.40;;;;;;;;;;5052916;28;20036;-73
2022/06/21 11:08:22;;;;;;;7.90;3.75;;;;;;;;;;5053716;28;20044;-73
2022/06/21 11:11:39;;;;;;;4.70;3.53;;;;;;;;;;5053868;28;20053;-74
2022/06/21 11:14:47;;;;;;;5.88;2.97;;;;;;;;;;5053524;28;20033;-73
2022/06/21 11:18:03;;;;;;;6.40;3.25;;;;;;;;;;5053705;28;20049;-73
2022/06/21 11:21:19;;;;;;;8.05;3.30;;;;;;;;;;5053539;28;20033;-73
2022/06/21 11:24:36;;;;;;;4.38;2.95;;;;;;;;;;5051702;28;20052;-73
2022/06/21 11:27:58;;;;;;;5.57;3.72;;;;;;;;;;5053490;28;20037;-74
2022/06/21 11:31:09;;;;;;;7.65;3.20;;;;;;;;;;5052952;28;20053;-73
2022/06/21 11:34:23;;;;;;;5.75;2.70;;;;;;;;;;5052481;28;20036;-73
2022/06/21 11:37:31;;;;;;;11.82;3.42;;;;;;;;;;5053225;28;20033;-73
2022/06/21 11:40:35;;;;;;;6.00;3.20;;;;;;;;;;5051866;28;20037;-74
2022/06/21 11:43:52;;;;;;;4.78;2.58;;;;;;;;;;5040777;28;20045;-74
2022/06/21 11:47:00;;;;;;;6.15;2.67;;;;;;;;;;5053417;28;20036;-73
2022/06/21 11:50:07;;;;;;;2.97;2.50;;;;;;;;;;5052010;28;20040;-73
2022/06/21 11:53:11;;;;;;;5.25;2.80;;;;;;;;;;5052750;28;20041;-74
2022/06/21 11:56:19;;;;;;;3.83;2.80;;;;;;;;;;5052434;28;20044;-74
2022/06/21 11:59:26;;;;;;;5.47;2.70;;;;;;;;;;5053211;28;20040;-73
2022/06/21 12:02:31;;;;;;;5.53;2.55;;;;;;;;;;5051911;28;20036;-74
2022/06/21 12:05:35;;;;;;;7.03;2.47;;;;;;;;;;5052619;28;20037;-73
2022/06/21 12:09:03;;;;;;;7.13;3.60;;;;;;;;;;5052879;28;20045;-73
2022/06/21 12:12:07;;;;;;;8.43;2.80;;;;;;;;;;5052819;28;20056;-73
2022/06/21 12:15:30;;;;;;;4.13;2.70;;;;;;;;;;5052752;28;20040;-72
2022/06/21 12:18:36;;;;;;;8.52;3.38;;;;;;;;;;5052660;28;20033;-74
2022/06/21 12:21:42;;;;;;;5.00;2.35;;;;;;;;;;5051238;28;20132;-74
2022/06/21 12:24:46;;;;;;;3.88;2.47;;;;;;;;;;5051649;28;20036;-73
2022/06/21 12:27:51;;;;;;;6.43;2.53;;;;;;;;;;5051657;28;20040;-73
2022/06/21 12:30:55;;;;;;;3.30;2.30;;;;;;;;;;5051572;28;20497;-72
2022/06/21 12:34:03;;;;;;;8.82;3.03;;;;;;;;;;5052017;28;20045;-69
2022/06/21 12:37:13;;;;;;;4.20;2.45;;;;;;;;;;5052397;28;20032;-70
2022/06/21 12:40:17;;;;;;;5.28;2.05;;;;;;;;;;5052237;28;20036;-71
2022/06/21 12:43:48;;;;;;;5.60;2.33;;;;;;;;;;5052320;28;20029;-72
2022/06/21 12:46:53;;;;;;;4.72;2.28;;;;;;;;;;5054996;28;20219;-71
2022/06/21 12:50:16;;;;;;;4.25;2.30;;;;;;;;;;5057646;28;20052;-73
2022/06/21 12:53:27;;;;;;;7.15;2.75;;;;;;;;;;5060425;28;20041;-72
2022/06/21 12:56:40;;;;;;;6.18;2.90;;;;;;;;;;5058578;28;20025;-74
2022/06/21 13:00:04;;;;;;;11.20;2.88;;;;;;;;;;5062262;28;20045;-73
2022/06/21 13:03:20;;;;;;;13.38;4.03;;;;;;;;;;5061386;28;20606;-82
2022/06/21 13:06:28;;;;;;;5.18;2.22;;;;;;;;;;5051318;28;20052;-72
2022/06/21 13:09:35;;;;;;;4.30;2.40;;;;;;;;;;5050749;28;20488;-73
2022/06/21 13:12:53;;;;;;;5.90;2.60;;;;;;;;;;5039393;28;20389;-74
2022/06/21 13:16:04;;;;;;;8.00;3.17;;;;;;;;;;5051639;28;20041;-78
2022/06/21 13:19:08;;;;;;;6.55;3.70;;;;;;;;;;5050659;28;20037;-76
2022/06/21 13:22:20;;;;;;;3.85;2.47;;;;;;;;;;5050462;28;20049;-71
2022/06/21 13:25:25;;;;;;;12.38;2.78;;;;;;;;;;5052043;28;20485;-77
2022/06/21 13:28:36;;;;;;;5.57;2.40;;;;;;;;;;5050731;28;20041;-73
2022/06/21 13:31:53;;;;;;;10.38;3.42;;;;;;;;;;5052642;28;20373;-73
2022/06/21 13:35:12;;;;;;;5.78;2.90;;;;;;;;;;5051604;28;20045;-69
2022/06/21 13:38:40;;;;;;;6.53;2.78;;;;;;;;;;5051490;28;20037;-74
2022/06/21 13:45:27;;;;;;;8.18;3.10;;;;;;;;;;5050087;28;20032;-74
2022/06/21 13:48:40;;;;;;;9.73;3.05;;;;;;;;;;5050985;28;20041;-73
2022/06/21 13:51:51;;;;;;;4.15;2.45;;;;;;;;;;5050213;28;20445;-73
2022/06/21 13:54:58;;;;;;;4.95;2.85;;;;;;;;;;5051003;28;20037;-72
2022/06/21 13:58:02;;;;;;;4.25;2.65;;;;;;;;;;5051512;28;20389;-70
2022/06/21 14:01:14;;;;;;;7.70;3.20;;;;;;;;;;5051014;28;20045;-71
2022/06/21 14:04:18;;;;;;;9.15;2.60;;;;;;;;;;5050576;28;20350;-71
2022/06/21 14:07:58;;;;;;;9.88;3.13;;;;;;;;;;5050637;28;20041;-72
2022/06/21 14:11:11;;;;;;;6.27;3.10;;;;;;;;;;5048347;28;20049;-70
2022/06/21 14:14:31;;;;;;;7.57;2.83;;;;;;;;;;5050515;28;20267;-71
2022/06/21 14:17:47;;;;;;;5.55;2.65;;;;;;;;;;5050392;28;20041;-70
2022/06/21 14:20:52;;;;;;;5.38;3.08;;;;;;;;;;5050531;28;20049;-70
2022/06/21 14:24:05;;;;;;;7.80;2.60;;;;;;;;;;5050517;28;20045;-73
2022/06/21 14:27:15;;;;;;;9.57;2.75;;;;;;;;;;5049457;28;20501;-71
2022/06/21 14:30:23;;;;;;;29.00;3.67;;;;;;;;;;5050231;28;20049;-72
2022/06/21 14:33:30;;;;;;;6.72;2.65;;;;;;;;;;5050431;28;20174;-73
2022/06/21 14:36:46;;;;;;;9.45;2.88;;;;;;;;;;5050264;28;20365;-73
2022/06/21 14:40:08;;;;;;;12.55;2.50;;;;;;;;;;5050479;28;20045;-72
2022/06/21 14:43:13;;;;;;;8.88;2.60;;;;;;;;;;5049786;28;20036;-71
2022/06/21 14:46:28;;;;;;;15.57;2.75;;;;;;;;;;5049758;28;20041;-78
2022/06/21 14:49:51;;;;;;;13.20;2.60;;;;;;;;;;5050629;28;20045;-73
2022/06/21 14:53:13;;;;;;;7.60;2.58;;;;;;;;;;5050085;28;20455;-72
2022/06/21 14:56:37;;;;;;;5.97;2.38;;;;;;;;;;5050328;28;20088;-72
2022/06/21 14:59:44;;;;;;;5.70;2.47;;;;;;;;;;5051908;28;20045;-72
2022/06/21 15:03:00;;;;;;;9.77;2.35;;;;;;;;;;5052390;28;20037;-73
2022/06/21 15:06:08;;;;;;;9.30;3.05;;;;;;;;;;5053359;28;20033;-71
2022/06/21 15:09:20;;;;;;;14.60;3.67;;;;;;;;;;5052248;28;20029;-75
2022/06/21 15:12:26;;;;;;;8.32;2.70;;;;;;;;;;5052662;28;20054;-72
2022/06/21 15:15:33;;;;;;;10.05;2.53;;;;;;;;;;5053009;28;20041;-73
2022/06/21 15:18:38;;;;;;;11.52;2.80;;;;;;;;;;5053523;28;20044;-72
2022/06/21 15:21:42;;;;;;;11.88;3.15;;;;;;;;;;5052347;28;20063;-75
2022/06/21 15:24:48;;;;;;;10.88;2.85;;;;;;;;;;5053091;28;20037;-75
2022/06/21 15:28:11;;;;;;;13.50;3.50;;;;;;;;;;5053173;28;20496;-73
2022/06/21 15:31:19;;;;;;;11.55;2.80;;;;;;;;;;5051963;28;20055;-72
2022/06/21 15:34:29;;;;;;;7.03;2.67;;;;;;;;;;5052663;28;20025;-75
2022/06/21 15:37:54;;;;;;;9.23;3.10;;;;;;;;;;5040903;28;20343;-75
2022/06/21 15:41:00;;;;;;;11.45;3.42;;;;;;;;;;5052022;28;20033;-77
2022/06/21 15:44:23;;;;;;;3.63;2.75;;;;;;;;;;5052154;28;20045;-77
2022/06/21 15:51:03;;;;;;;7.15;2.75;;;;;;;;;;5052346;28;20053;-72
2022/06/21 15:54:25;;;;;;;4.25;2.60;;;;;;;;;;5052367;28;20473;-77
2022/06/21 15:57:49;;;;;;;6.53;2.85;;;;;;;;;;5052097;28;20044;-72
2022/06/21 16:01:03;;;;;;;7.15;3.28;;;;;;;;;;5052287;28;20033;-73
2022/06/21 16:04:12;;;;;;;8.40;3.78;;;;;;;;;;5052691;28;20049;-72
2022/06/21 16:07:19;;;;;;;12.30;3.53;;;;;;;;;;5051793;28;20040;-71
2022/06/21 16:10:28;;;;;;;12.88;3.53;;;;;;;;;;5051117;28;20049;-71
2022/06/21 16:13:34;;;;;;;5.65;3.47;;;;;;;;;;5052390;28;20299;-72
2022/06/21 16:16:40;;;;;;;9.88;3.13;;;;;;;;;;5052415;28;20041;-72
2022/06/21 16:19:48;;;;;;;13.55;3.13;;;;;;;;;;5051462;28;20044;-72
2022/06/21 16:22:59;;;;;;;10.35;3.20;;;;;;;;;;5051959;28;20049;-72
2022/06/21 16:26:07;;;;;;;7.60;3.40;;;;;;;;;;5051619;28;20048;-71
2022/06/21 16:29:15;;;;;;;9.52;3.10;;;;;;;;;;5052348;28;20037;-71
2022/06/21 16:35:47;;;;;;;8.40;2.92;;;;;;;;;;5051723;28;20500;-70
2022/06/21 16:38:55;;;;;;;7.72;3.22;;;;;;;;;;5051808;28;20049;-70
2022/06/21 16:45:34;;;;;;;8.20;3.55;;;;;;;;;;5051771;28;20103;-72
2022/06/21 16:48:44;;;;;;;11.02;3.42;;;;;;;;;;5050295;28;20144;-74
2022/06/21 16:51:50;;;;;;;11.95;3.78;;;;;;;;;;5052163;28;20048;-74
2022/06/21 16:55:01;;;;;;;9.23;3.65;;;;;;;;;;5051327;28;20041;-73
2022/06/21 16:58:05;;;;;;;;;;;;;;;;;;5052364;28;20040;-72
2022/06/21 17:01:10;;;;;;;9.75;3.33;;;;;;;;;;5051214;28;19923;-72
2022/06/21 17:04:20;;;;;;;9.85;3.78;;;;;;;;;;5051588;28;20374;-74
2022/06/21 17:07:27;;;;;;;16.58;4.35;;;;;;;;;;5051356;28;20037;-73
2022/06/21 17:14:07;;;;;;;8.82;3.97;;;;;;;;;;5039049;28;20037;-74
2022/06/21 17:17:11;;;;;;;4.80;3.17;;;;;;;;;;5050612;28;20049;-74
2022/06/21 17:20:24;;;;;;;7.75;3.60;;;;;;;;;;5051307;28;20045;-72
2022/06/21 17:23:29;;;;;;;7.22;3.30;;;;;;;;;;5050946;28;20041;-74
2022/06/21 17:26:38;;;;;;;12.32;3.70;;;;;;;;;;5050551;28;20049;-73
2022/06/21 17:29:48;;;;;;;11.20;4.03;;;;;;;;;;5038422;28;20048;-74
2022/06/21 17:33:09;;;;;;;18.60;4.05;;;;;;;;;;5051369;28;20511;-74
2022/06/21 17:36:14;;;;;;;11.80;3.30;;;;;;;;;;5050011;28;20040;-73
2022/06/21 17:39:18;;;;;;;15.35;3.30;;;;;;;;;;5050140;28;20441;-74
2022/06/21 17:42:28;;;;;;;4.20;3.15;;;;;;;;;;5050829;28;20052;-74
2022/06/21 17:45:36;;;;;;;7.20;3.25;;;;;;;;;;5049756;28;20041;-73
2022/06/21 17:49:01;;;;;;;8.63;3.60;;;;;;;;;;5049932;28;20045;-73
2022/06/21 17:52:08;;;;;;;9.50;3.40;;;;;;;;;;5038567;28;20488;-73
2022/06/21 17:55:17;;;;;;;16.35;4.57;;;;;;;;;;5049946;28;20045;-74
2022/06/21 17:58:31;;;;;;;8.45;4.00;;;;;;;;;;5050934;28;20048;-74
2022/06/21 18:01:43;;;;;;;10.27;3.72;;;;;;;;;;5038861;28;20041;-74
2022/06/21 18:04:53;;;;;;;11.82;4.35;;;;;;;;;;5051169;28;20061;-74
2022/06/21 18:08:17;;;;;;;10.02;3.45;;;;;;;;;;5038711;28;20403;-74
2022/06/21 18:11:32;;;;;;;7.85;3.33;;;;;;;;;;5049474;28;20535;-72
2022/06/21 18:14:37;;;;;;;5.57;3.35;;;;;;;;;;5050118;28;20370;-73
2022/06/21 18:17:41;;;;;;;9.95;3.72;;;;;;;;;;5038569;28;20381;-74
2022/06/21 18:20:51;;;;;;;11.18;3.83;;;;;;;;;;5049832;28;20487;-74
2022/06/21 18:24:03;;;;;;;7.75;3.85;;;;;;;;;;5050886;28;20048;-74
2022/06/21 18:27:13;;;;;;;15.50;4.88;;;;;;;;;;5050742;28;20036;-72
2022/06/21 18:30:33;;;;;;;7.50;3.60;;;;;;;;;;5050114;28;20057;-73
2022/06/21 18:33:38;;;;;;;11.35;3.63;;;;;;;;;;5053150;28;20036;-73
2022/06/21 18:36:42;;;;;;;6.00;3.83;;;;;;;;;;5054520;28;20045;-73
2022/06/21 18:39:57;;;;;;;5.18;3.35;;;;;;;;;;5054398;28;20037;-73
2022/06/21 18:43:18;;;;;;;14.27;3.85;;;;;;;;;;5054630;28;20484;-73
2022/06/21 18:46:29;;;;;;;13.27;4.15;;;;;;;;;;5054117;28;20033;-72
2022/06/21 18:49:39;;;;;;;9.55;4.30;;;;;;;;;;5053859;28;20052;-72
2022/06/21 18:52:44;;;;;;;9.05;4.07;;;;;;;;;;5055594;28;20041;-72
2022/06/21 18:56:00;;;;;;;9.45;3.83;;;;;;;;;;5053695;28;20037;-72
2022/06/21 18:59:23;;;;;;;9.02;3.85;;;;;;;;;;5054089;28;20446;-73
2022/06/21 19:02:32;;;;;;;15.02;4.60;;;;;;;;;;5053951;28;20033;-72
2022/06/21 19:09:20;;;;;;;9.32;3.65;;;;;;;;;;5055644;28;20037;-72
2022/06/21 19:12:46;;;;;;;11.60;3.97;;;;;;;;;;5054746;28;20048;-73
2022/06/21 19:15:51;;;;;;;14.20;3.85;;;;;;;;;;5054281;28;20041;-73
2022/06/21 19:19:13;;;;;;;8.90;4.20;;;;;;;;;;5052591;28;20324;-72
2022/06/21 19:22:21;;;;;;;12.77;4.80;;;;;;;;;;5053050;28;20198;-72
2022/06/21 19:25:41;;;;;;;13.65;3.90;;;;;;;;;;5052837;28;20033;-73
2022/06/21 19:29:00;;;;;;;12.90;4.93;;;;;;;;;;5052328;28;20047;-72
2022/06/21 19:32:22;;;;;;;16.88;4.95;;;;;;;;;;5051598;28;20056;-73